Harriot Lane — NHNC — position and weather

sailwx.info

Track history (hours):
 
Tides and Currents Weather Stations Pressure Air Temp Water Temp Dewpoint Dewpoint Depression Visibility Wind Speed Wind Dir Waves Ship Positions

Harriot Lane

Last reported at 2018-Jan-21 23:09 UTC. Time now 2018-Feb-20 10:05 UTC.
Position N 09°13' W 079°55'.
Warning: this ship's position is 29 days out of date.

Length 82 m; draft 4.3 m.

Type: Law enforcement. MMSI: 367291000.

Date/timePositionNaut miles runAvg speedWind from/ knotsBaromVisibWave heightAir tempDewpointWater temp
2018-Jan-21 23:09N 09°13' W 079°55'212.7
2018-Jan-21 23:00N 09°15' W 079°55'2 3.2
2018-Jan-21 22:30N 09°16' W 079°55'0 0.4
2018-Jan-21 22:00N 09°16' W 079°55'0 0.9
2018-Jan-21 21:29N 09°17' W 079°55'2 4.8
2018-Jan-21 21:00N 09°19' W 079°55'3 6.1
2018-Jan-21 20:30N 09°22' W 079°55'1 1.1
2018-Jan-21 20:00N 09°23' W 079°55'0 0.1
2018-Jan-21 19:30N 09°23' W 079°55'0 0.1
2018-Jan-21 19:00N 09°23' W 079°55'0 0.1
2018-Jan-21 18:29N 09°23' W 079°55'0 0.1
2018-Jan-21 18:00N 09°23' W 079°55'0 0.0
2018-Jan-21 17:30N 09°23' W 079°55'1 2.0
2018-Jan-21 17:00N 09°24' W 079°55'4 7.2
2018-Jan-21 16:30N 09°27' W 079°55'3 6.9
2018-Jan-21 16:00N 09°29' W 079°58'  
Track history (hours):
 
Tides and Currents Weather Stations Pressure Air Temp Water Temp Dewpoint Dewpoint Depression Visibility Wind Speed Wind Dir Waves Ship Positions

Harriot Lane

Last reported at 2018-Jan-21 23:09 UTC. Time now 2018-Feb-20 10:05 UTC.
Position N 09°13' W 079°55'.
Warning: this ship's position is 29 days out of date.

Length 82 m; draft 4.3 m.

Type: Law enforcement. MMSI: 367291000.

Date/timePositionNaut miles runAvg speedWind from/ knotsBaromVisibWave heightAir tempDewpointWater temp
2018-Jan-21 23:09N 09°13' W 079°55'212.7
2018-Jan-21 23:00N 09°15' W 079°55'2 3.2
2018-Jan-21 22:30N 09°16' W 079°55'0 0.4
2018-Jan-21 22:00N 09°16' W 079°55'0 0.9
2018-Jan-21 21:29N 09°17' W 079°55'2 4.8
2018-Jan-21 21:00N 09°19' W 079°55'3 6.1
2018-Jan-21 20:30N 09°22' W 079°55'1 1.1
2018-Jan-21 20:00N 09°23' W 079°55'0 0.1
2018-Jan-21 19:30N 09°23' W 079°55'0 0.1
2018-Jan-21 19:00N 09°23' W 079°55'0 0.1
2018-Jan-21 18:29N 09°23' W 079°55'0 0.1
2018-Jan-21 18:00N 09°23' W 079°55'0 0.0
2018-Jan-21 17:30N 09°23' W 079°55'1 2.0
2018-Jan-21 17:00N 09°24' W 079°55'4 7.2
2018-Jan-21 16:30N 09°27' W 079°55'3 6.9
2018-Jan-21 16:00N 09°29' W 079°58'  

Dump ship's entire track history